sensor_id;sensor_type;location;lat;lon;timestamp;pressure;altitude;pressure_sealevel;temperature;humidity
63321;BME280;49449;48.800;9.534;2023-02-20T00:01:02;99666.69;;;9.25;40.56
63321;BME280;49449;48.800;9.534;2023-02-20T00:03:30;99663.00;;;9.26;40.56
63321;BME280;49449;48.800;9.534;2023-02-20T00:05:59;99664.59;;;9.21;40.51
63321;BME280;49449;48.800;9.534;2023-02-20T00:08:27;99667.84;;;9.23;40.63
63321;BME280;49449;48.800;9.534;2023-02-20T00:10:54;99664.84;;;9.26;40.17
63321;BME280;49449;48.800;9.534;2023-02-20T00:13:23;99666.94;;;9.09;40.48
63321;BME280;49449;48.800;9.534;2023-02-20T00:15:51;99668.31;;;9.05;40.37
63321;BME280;49449;48.800;9.534;2023-02-20T00:18:19;99663.78;;;8.99;40.57
63321;BME280;49449;48.800;9.534;2023-02-20T00:20:46;99662.88;;;8.85;40.45
63321;BME280;49449;48.800;9.534;2023-02-20T00:23:16;99664.66;;;8.78;40.67
63321;BME280;49449;48.800;9.534;2023-02-20T00:25:44;99656.81;;;8.69;40.69
63321;BME280;49449;48.800;9.534;2023-02-20T00:28:11;99655.09;;;8.62;40.83
63321;BME280;49449;48.800;9.534;2023-02-20T00:30:39;99656.03;;;8.32;41.50
63321;BME280;49449;48.800;9.534;2023-02-20T00:33:07;99653.63;;;8.16;41.81
63321;BME280;49449;48.800;9.534;2023-02-20T00:35:35;99658.44;;;8.12;41.73
63321;BME280;49449;48.800;9.534;2023-02-20T00:38:03;99658.00;;;8.09;41.88
63321;BME280;49449;48.800;9.534;2023-02-20T00:40:32;99674.09;;;8.35;41.46
63321;BME280;49449;48.800;9.534;2023-02-20T00:43:00;99671.03;;;8.17;41.66
63321;BME280;49449;48.800;9.534;2023-02-20T00:45:28;99675.69;;;7.85;42.19
63321;BME280;49449;48.800;9.534;2023-02-20T00:47:56;99684.84;;;8.04;41.88
63321;BME280;49449;48.800;9.534;2023-02-20T00:50:23;99684.94;;;8.11;41.90
63321;BME280;49449;48.800;9.534;2023-02-20T00:52:51;99696.53;;;8.02;42.19
63321;BME280;49449;48.800;9.534;2023-02-20T00:55:19;99690.91;;;7.75;42.74
63321;BME280;49449;48.800;9.534;2023-02-20T00:57:48;99688.63;;;8.02;42.14
63321;BME280;49449;48.800;9.534;2023-02-20T01:00:19;99685.75;;;8.11;42.21
63321;BME280;49449;48.800;9.534;2023-02-20T01:02:47;99687.00;;;8.15;41.83
63321;BME280;49449;48.800;9.534;2023-02-20T01:05:15;99681.59;;;8.02;42.04
63321;BME280;49449;48.800;9.534;2023-02-20T01:07:43;99678.31;;;8.00;42.22
63321;BME280;49449;48.800;9.534;2023-02-20T01:10:11;99679.97;;;7.86;42.54
63321;BME280;49449;48.800;9.534;2023-02-20T01:12:39;99677.50;;;7.85;42.57
63321;BME280;49449;48.800;9.534;2023-02-20T01:15:11;99674.97;;;7.91;42.38
63321;BME280;49449;48.800;9.534;2023-02-20T01:17:38;99680.94;;;7.85;42.44
63321;BME280;49449;48.800;9.534;2023-02-20T01:20:07;99670.31;;;7.78;42.49
63321;BME280;49449;48.800;9.534;2023-02-20T01:22:35;99666.97;;;7.70;42.70
63321;BME280;49449;48.800;9.534;2023-02-20T01:25:03;99657.78;;;7.81;42.36
63321;BME280;49449;48.800;9.534;2023-02-20T01:27:31;99652.38;;;7.67;42.66
63321;BME280;49449;48.800;9.534;2023-02-20T01:29:59;99642.84;;;7.66;42.67
63321;BME280;49449;48.800;9.534;2023-02-20T01:32:28;99654.41;;;7.42;42.99
63321;BME280;49449;48.800;9.534;2023-02-20T01:34:56;99661.56;;;7.48;43.23
63321;BME280;49449;48.800;9.534;2023-02-20T01:37:23;99653.50;;;7.50;42.83
63321;BME280;49449;48.800;9.534;2023-02-20T01:39:51;99656.53;;;7.62;42.91
63321;BME280;49449;48.800;9.534;2023-02-20T01:42:22;99654.19;;;7.67;42.46
63321;BME280;49449;48.800;9.534;2023-02-20T01:44:50;99656.81;;;7.67;42.49
63321;BME280;49449;48.800;9.534;2023-02-20T01:47:20;99657.97;;;7.49;42.59
63321;BME280;49449;48.800;9.534;2023-02-20T01:49:51;99655.19;;;7.66;42.12
63321;BME280;49449;48.800;9.534;2023-02-20T01:52:24;99655.00;;;7.82;42.16
63321;BME280;49449;48.800;9.534;2023-02-20T01:54:55;99662.44;;;7.93;41.61
63321;BME280;49449;48.800;9.534;2023-02-20T01:57:28;99662.72;;;7.98;41.57
63321;BME280;49449;48.800;9.534;2023-02-20T01:59:59;99653.81;;;8.00;41.53
63321;BME280;49449;48.800;9.534;2023-02-20T02:02:32;99656.97;;;8.10;41.46
63321;BME280;49449;48.800;9.534;2023-02-20T02:05:03;99663.88;;;8.11;41.27
63321;BME280;49449;48.800;9.534;2023-02-20T02:07:31;99662.06;;;8.11;41.25
63321;BME280;49449;48.800;9.534;2023-02-20T02:10:02;99651.00;;;8.01;41.29
63321;BME280;49449;48.800;9.534;2023-02-20T02:12:30;99641.03;;;7.96;41.59
63321;BME280;49449;48.800;9.534;2023-02-20T02:14:58;99636.75;;;7.95;41.20
63321;BME280;49449;48.800;9.534;2023-02-20T02:17:59;99634.47;;;7.92;41.30
63321;BME280;49449;48.800;9.534;2023-02-20T02:20:55;99635.50;;;7.91;41.22
63321;BME280;49449;48.800;9.534;2023-02-20T02:29:44;99623.88;;;8.01;40.97
63321;BME280;49449;48.800;9.534;2023-02-20T02:32:39;99641.94;;;8.04;41.29
63321;BME280;49449;48.800;9.534;2023-02-20T02:35:27;99641.09;;;8.03;41.01
63321;BME280;49449;48.800;9.534;2023-02-20T02:38:06;99644.00;;;8.08;41.07
63321;BME280;49449;48.800;9.534;2023-02-20T02:40:42;99635.09;;;8.09;40.82
63321;BME280;49449;48.800;9.534;2023-02-20T02:43:17;99630.28;;;8.13;41.06
63321;BME280;49449;48.800;9.534;2023-02-20T02:45:50;99640.81;;;8.13;40.74
63321;BME280;49449;48.800;9.534;2023-02-20T02:48:26;99632.91;;;8.13;41.13
63321;BME280;49449;48.800;9.534;2023-02-20T02:50:58;99633.72;;;8.13;41.03
63321;BME280;49449;48.800;9.534;2023-02-20T02:53:30;99629.13;;;8.01;40.98
63321;BME280;49449;48.800;9.534;2023-02-20T02:55:58;99633.38;;;8.02;41.23
63321;BME280;49449;48.800;9.534;2023-02-20T02:58:46;99636.28;;;8.07;41.03
63321;BME280;49449;48.800;9.534;2023-02-20T03:01:16;99626.41;;;8.09;40.98
63321;BME280;49449;48.800;9.534;2023-02-20T03:03:46;99625.88;;;7.98;40.94
63321;BME280;49449;48.800;9.534;2023-02-20T03:06:17;99629.56;;;7.89;41.21
63321;BME280;49449;48.800;9.534;2023-02-20T03:08:53;99622.22;;;8.00;41.09
63321;BME280;49449;48.800;9.534;2023-02-20T03:11:25;99625.38;;;8.10;40.98
63321;BME280;49449;48.800;9.534;2023-02-20T03:13:58;99620.94;;;8.10;40.95
63321;BME280;49449;48.800;9.534;2023-02-20T03:16:52;99618.94;;;8.12;40.86
63321;BME280;49449;48.800;9.534;2023-02-20T03:19:23;99617.94;;;8.13;40.94
63321;BME280;49449;48.800;9.534;2023-02-20T03:21:53;99619.75;;;8.13;40.76
63321;BME280;49449;48.800;9.534;2023-02-20T03:24:25;99625.84;;;8.13;41.03
63321;BME280;49449;48.800;9.534;2023-02-20T03:26:55;99619.56;;;8.14;40.95
63321;BME280;49449;48.800;9.534;2023-02-20T03:29:31;99623.63;;;8.17;41.00
63321;BME280;49449;48.800;9.534;2023-02-20T03:32:04;99623.00;;;8.15;40.77
63321;BME280;49449;48.800;9.534;2023-02-20T03:34:51;99624.94;;;8.06;41.19
63321;BME280;49449;48.800;9.534;2023-02-20T03:37:38;99627.84;;;8.11;41.33
63321;BME280;49449;48.800;9.534;2023-02-20T03:40:28;99635.28;;;8.08;40.90
63321;BME280;49449;48.800;9.534;2023-02-20T03:43:16;99631.84;;;8.07;40.99
63321;BME280;49449;48.800;9.534;2023-02-20T03:45:54;99624.50;;;8.03;40.91
63321;BME280;49449;48.800;9.534;2023-02-20T03:48:28;99629.03;;;8.09;40.98
63321;BME280;49449;48.800;9.534;2023-02-20T03:50:57;99630.66;;;8.10;40.75
63321;BME280;49449;48.800;9.534;2023-02-20T03:53:43;99631.28;;;8.12;41.43
63321;BME280;49449;48.800;9.534;2023-02-20T03:56:15;99629.72;;;8.17;41.33
63321;BME280;49449;48.800;9.534;2023-02-20T03:58:47;99626.09;;;8.19;41.41
63321;BME280;49449;48.800;9.534;2023-02-20T04:01:19;99628.53;;;8.20;42.92
63321;BME280;49449;48.800;9.534;2023-02-20T04:03:49;99632.63;;;8.23;42.11
63321;BME280;49449;48.800;9.534;2023-02-20T04:06:21;99626.19;;;8.25;41.81
63321;BME280;49449;48.800;9.534;2023-02-20T04:08:51;99627.16;;;8.24;41.72
63321;BME280;49449;48.800;9.534;2023-02-20T04:11:24;99630.41;;;8.26;40.58
63321;BME280;49449;48.800;9.534;2023-02-20T04:13:55;99622.31;;;8.06;40.95
63321;BME280;49449;48.800;9.534;2023-02-20T04:16:24;99617.25;;;7.90;41.00
63321;BME280;49449;48.800;9.534;2023-02-20T04:18:52;99627.22;;;7.65;41.34
63321;BME280;49449;48.800;9.534;2023-02-20T04:21:22;99624.88;;;7.70;41.41
63321;BME280;49449;48.800;9.534;2023-02-20T04:24:01;99614.81;;;7.73;41.10
63321;BME280;49449;48.800;9.534;2023-02-20T04:26:32;99619.72;;;7.76;41.49
63321;BME280;49449;48.800;9.534;2023-02-20T04:29:01;99615.88;;;7.49;41.48
63321;BME280;49449;48.800;9.534;2023-02-20T04:31:29;99609.59;;;7.50;41.50
63321;BME280;49449;48.800;9.534;2023-02-20T04:33:57;99610.00;;;7.47;41.71
63321;BME280;49449;48.800;9.534;2023-02-20T04:36:25;99610.31;;;7.14;42.14
63321;BME280;49449;48.800;9.534;2023-02-20T04:38:53;99619.84;;;7.30;42.87
63321;BME280;49449;48.800;9.534;2023-02-20T04:41:20;99616.06;;;7.48;41.82
63321;BME280;49449;48.800;9.534;2023-02-20T04:43:49;99605.56;;;7.10;42.29
63321;BME280;49449;48.800;9.534;2023-02-20T04:46:37;99603.97;;;7.23;41.99
63321;BME280;49449;48.800;9.534;2023-02-20T04:49:05;99613.41;;;7.33;41.82
63321;BME280;49449;48.800;9.534;2023-02-20T04:51:33;99601.97;;;7.26;41.89
63321;BME280;49449;48.800;9.534;2023-02-20T04:54:00;99605.78;;;7.23;41.78
63321;BME280;49449;48.800;9.534;2023-02-20T04:56:28;99613.75;;;7.15;42.19
63321;BME280;49449;48.800;9.534;2023-02-20T04:58:57;99613.97;;;6.90;42.56
63321;BME280;49449;48.800;9.534;2023-02-20T05:01:25;99624.25;;;7.15;42.22
63321;BME280;49449;48.800;9.534;2023-02-20T05:03:52;99625.81;;;7.24;42.00
63321;BME280;49449;48.800;9.534;2023-02-20T05:06:20;99631.56;;;7.28;41.94
63321;BME280;49449;48.800;9.534;2023-02-20T05:08:48;99628.25;;;7.26;41.75
63321;BME280;49449;48.800;9.534;2023-02-20T05:11:16;99617.69;;;7.34;41.57
63321;BME280;49449;48.800;9.534;2023-02-20T05:13:44;99624.25;;;7.15;41.80
63321;BME280;49449;48.800;9.534;2023-02-20T05:16:13;99610.03;;;7.09;41.93
63321;BME280;49449;48.800;9.534;2023-02-20T05:18:41;99615.81;;;7.04;41.88
63321;BME280;49449;48.800;9.534;2023-02-20T05:21:12;99617.84;;;7.17;41.86
63321;BME280;49449;48.800;9.534;2023-02-20T05:23:57;99624.38;;;7.21;41.52
63321;BME280;49449;48.800;9.534;2023-02-20T05:26:25;99619.38;;;7.27;41.49
63321;BME280;49449;48.800;9.534;2023-02-20T05:28:53;99637.69;;;7.20;41.54
63321;BME280;49449;48.800;9.534;2023-02-20T05:31:22;99634.88;;;7.36;41.13
63321;BME280;49449;48.800;9.534;2023-02-20T05:33:50;99632.97;;;7.15;41.43
63321;BME280;49449;48.800;9.534;2023-02-20T05:36:18;99621.66;;;7.30;41.21
63321;BME280;49449;48.800;9.534;2023-02-20T05:38:45;99624.19;;;7.38;40.84
63321;BME280;49449;48.800;9.534;2023-02-20T05:41:14;99618.88;;;7.46;41.09
63321;BME280;49449;48.800;9.534;2023-02-20T05:43:42;99623.13;;;7.47;41.20
63321;BME280;49449;48.800;9.534;2023-02-20T05:46:10;99631.28;;;7.52;40.99
63321;BME280;49449;48.800;9.534;2023-02-20T05:48:40;99625.16;;;7.60;40.85
63321;BME280;49449;48.800;9.534;2023-02-20T05:51:07;99623.97;;;7.63;40.71
63321;BME280;49449;48.800;9.534;2023-02-20T05:53:35;99625.63;;;7.64;40.86
63321;BME280;49449;48.800;9.534;2023-02-20T05:56:03;99629.06;;;7.64;40.89
63321;BME280;49449;48.800;9.534;2023-02-20T05:58:31;99626.59;;;7.63;40.91
63321;BME280;49449;48.800;9.534;2023-02-20T06:00:58;99627.63;;;7.62;40.99
63321;BME280;49449;48.800;9.534;2023-02-20T06:03:26;99623.97;;;7.63;41.54
63321;BME280;49449;48.800;9.534;2023-02-20T06:05:55;99627.03;;;7.51;41.36
63321;BME280;49449;48.800;9.534;2023-02-20T06:08:23;99616.97;;;7.55;41.32
63321;BME280;49449;48.800;9.534;2023-02-20T06:10:51;99619.94;;;7.52;41.26
63321;BME280;49449;48.800;9.534;2023-02-20T06:13:18;99622.75;;;7.50;41.15
63321;BME280;49449;48.800;9.534;2023-02-20T06:15:46;99627.94;;;7.44;41.55
63321;BME280;49449;48.800;9.534;2023-02-20T06:18:14;99630.19;;;7.47;41.32
63321;BME280;49449;48.800;9.534;2023-02-20T06:20:42;99640.34;;;7.50;41.32
63321;BME280;49449;48.800;9.534;2023-02-20T06:23:11;99645.63;;;7.50;41.25
63321;BME280;49449;48.800;9.534;2023-02-20T06:25:39;99647.63;;;7.48;41.22
63321;BME280;49449;48.800;9.534;2023-02-20T06:28:06;99633.91;;;7.37;40.90
63321;BME280;49449;48.800;9.534;2023-02-20T06:30:34;99632.53;;;7.27;41.34
63321;BME280;49449;48.800;9.534;2023-02-20T06:33:02;99639.16;;;7.22;41.42
63321;BME280;49449;48.800;9.534;2023-02-20T06:35:30;99643.34;;;7.32;41.24
63321;BME280;49449;48.800;9.534;2023-02-20T06:37:59;99636.72;;;7.36;41.42
63321;BME280;49449;48.800;9.534;2023-02-20T06:40:28;99639.81;;;7.39;41.14
63321;BME280;49449;48.800;9.534;2023-02-20T06:42:56;99642.69;;;7.30;41.47
63321;BME280;49449;48.800;9.534;2023-02-20T06:45:23;99634.88;;;7.36;41.56
63321;BME280;49449;48.800;9.534;2023-02-20T06:47:51;99641.44;;;7.40;41.49
63321;BME280;49449;48.800;9.534;2023-02-20T06:50:19;99639.63;;;7.41;41.35
63321;BME280;49449;48.800;9.534;2023-02-20T06:52:46;99651.97;;;7.40;41.47
63321;BME280;49449;48.800;9.534;2023-02-20T06:55:14;99653.56;;;7.41;41.08
63321;BME280;49449;48.800;9.534;2023-02-20T06:57:43;99654.41;;;7.42;41.34
63321;BME280;49449;48.800;9.534;2023-02-20T07:00:12;99658.47;;;7.45;41.25
63321;BME280;49449;48.800;9.534;2023-02-20T07:02:40;99669.28;;;7.50;41.31
63321;BME280;49449;48.800;9.534;2023-02-20T07:05:09;99666.03;;;7.48;40.80
63321;BME280;49449;48.800;9.534;2023-02-20T07:07:37;99669.00;;;7.45;41.29
63321;BME280;49449;48.800;9.534;2023-02-20T07:10:05;99667.56;;;7.57;41.55
63321;BME280;49449;48.800;9.534;2023-02-20T07:12:33;99664.38;;;7.47;41.10
63321;BME280;49449;48.800;9.534;2023-02-20T07:15:05;99663.53;;;7.69;40.99
63321;BME280;49449;48.800;9.534;2023-02-20T07:17:33;99669.22;;;8.03;40.57
63321;BME280;49449;48.800;9.534;2023-02-20T07:20:01;99671.38;;;8.29;40.10
63321;BME280;49449;48.800;9.534;2023-02-20T07:22:29;99667.97;;;8.50;39.98
63321;BME280;49449;48.800;9.534;2023-02-20T07:24:57;99665.00;;;8.75;39.64
63321;BME280;49449;48.800;9.534;2023-02-20T07:27:25;99667.38;;;8.91;39.39
63321;BME280;49449;48.800;9.534;2023-02-20T07:29:53;99661.84;;;9.07;39.04
63321;BME280;49449;48.800;9.534;2023-02-20T07:32:22;99666.25;;;9.22;39.18
63321;BME280;49449;48.800;9.534;2023-02-20T07:34:49;99657.59;;;9.35;39.05
63321;BME280;49449;48.800;9.534;2023-02-20T07:37:29;99667.44;;;9.47;38.45
63321;BME280;49449;48.800;9.534;2023-02-20T07:39:57;99667.53;;;9.61;38.80
63321;BME280;49449;48.800;9.534;2023-02-20T07:42:24;99665.34;;;9.71;38.72
63321;BME280;49449;48.800;9.534;2023-02-20T07:44:52;99655.25;;;9.81;38.10
63321;BME280;49449;48.800;9.534;2023-02-20T07:47:21;99654.97;;;9.98;37.90
63321;BME280;49449;48.800;9.534;2023-02-20T07:49:49;99650.72;;;10.03;37.35
63321;BME280;49449;48.800;9.534;2023-02-20T07:52:17;99648.53;;;10.14;36.76
63321;BME280;49449;48.800;9.534;2023-02-20T07:54:44;99641.03;;;10.24;36.85
63321;BME280;49449;48.800;9.534;2023-02-20T07:57:13;99649.00;;;10.37;36.38
63321;BME280;49449;48.800;9.534;2023-02-20T07:59:41;99649.22;;;10.42;35.75
63321;BME280;49449;48.800;9.534;2023-02-20T08:02:08;99647.78;;;10.40;35.91
63321;BME280;49449;48.800;9.534;2023-02-20T08:04:37;99644.97;;;10.48;36.25
63321;BME280;49449;48.800;9.534;2023-02-20T08:07:05;99642.75;;;10.58;35.02
63321;BME280;49449;48.800;9.534;2023-02-20T08:09:33;99640.28;;;10.43;34.57
63321;BME280;49449;48.800;9.534;2023-02-20T08:12:01;99634.13;;;10.23;34.89
63321;BME280;49449;48.800;9.534;2023-02-20T08:14:28;99630.50;;;9.19;35.95
63321;BME280;49449;48.800;9.534;2023-02-20T08:16:56;99638.75;;;9.66;36.17
63321;BME280;49449;48.800;9.534;2023-02-20T08:19:24;99639.81;;;9.78;36.35
63321;BME280;49449;48.800;9.534;2023-02-20T08:21:53;99631.69;;;9.80;35.97
63321;BME280;49449;48.800;9.534;2023-02-20T08:24:21;99643.03;;;9.74;35.26
63321;BME280;49449;48.800;9.534;2023-02-20T08:26:48;99629.09;;;9.52;35.21
63321;BME280;49449;48.800;9.534;2023-02-20T08:29:16;99628.53;;;9.28;35.93
63321;BME280;49449;48.800;9.534;2023-02-20T08:31:44;99623.09;;;10.06;34.58
63321;BME280;49449;48.800;9.534;2023-02-20T08:34:12;99615.47;;;11.58;32.09
63321;BME280;49449;48.800;9.534;2023-02-20T08:36:39;99610.16;;;12.55;30.70
63321;BME280;49449;48.800;9.534;2023-02-20T08:39:09;99598.56;;;13.06;29.94
63321;BME280;49449;48.800;9.534;2023-02-20T08:41:41;99601.75;;;13.59;29.96
63321;BME280;49449;48.800;9.534;2023-02-20T08:44:08;99608.75;;;14.39;28.07
63321;BME280;49449;48.800;9.534;2023-02-20T08:46:36;99616.34;;;14.66;28.17
63321;BME280;49449;48.800;9.534;2023-02-20T08:49:04;99611.78;;;15.44;26.38
63321;BME280;49449;48.800;9.534;2023-02-20T08:51:31;99617.44;;;15.12;26.27
63321;BME280;49449;48.800;9.534;2023-02-20T08:53:59;99604.25;;;15.17;25.79
63321;BME280;49449;48.800;9.534;2023-02-20T08:56:28;99607.47;;;14.84;27.44
63321;BME280;49449;48.800;9.534;2023-02-20T08:58:56;99604.69;;;13.88;27.78
63321;BME280;49449;48.800;9.534;2023-02-20T09:01:24;99600.47;;;13.43;29.48
63321;BME280;49449;48.800;9.534;2023-02-20T09:03:52;99601.88;;;13.27;29.79
63321;BME280;49449;48.800;9.534;2023-02-20T09:06:19;99594.78;;;13.21;30.01
63321;BME280;49449;48.800;9.534;2023-02-20T09:08:50;99600.63;;;12.54;29.59
63321;BME280;49449;48.800;9.534;2023-02-20T09:11:17;99600.22;;;12.50;30.52
63321;BME280;49449;48.800;9.534;2023-02-20T09:13:47;99600.34;;;12.30;30.13
63321;BME280;49449;48.800;9.534;2023-02-20T09:16:18;99591.44;;;12.18;30.34
63321;BME280;49449;48.800;9.534;2023-02-20T09:18:46;99586.78;;;12.13;31.20
63321;BME280;49449;48.800;9.534;2023-02-20T09:21:16;99589.28;;;12.40;31.33
63321;BME280;49449;48.800;9.534;2023-02-20T09:23:44;99585.84;;;12.65;30.89
63321;BME280;49449;48.800;9.534;2023-02-20T09:26:12;99580.25;;;12.80;32.87
63321;BME280;49449;48.800;9.534;2023-02-20T09:28:40;99576.69;;;12.93;31.68
63321;BME280;49449;48.800;9.534;2023-02-20T09:31:09;99579.88;;;12.44;29.38
63321;BME280;49449;48.800;9.534;2023-02-20T09:33:37;99579.53;;;12.66;31.20
63321;BME280;49449;48.800;9.534;2023-02-20T09:36:05;99579.22;;;13.06;31.48
63321;BME280;49449;48.800;9.534;2023-02-20T09:38:33;99565.88;;;13.31;31.48
63321;BME280;49449;48.800;9.534;2023-02-20T09:41:01;99566.63;;;13.57;30.26
63321;BME280;49449;48.800;9.534;2023-02-20T09:43:38;99559.44;;;13.82;30.23
63321;BME280;49449;48.800;9.534;2023-02-20T09:46:12;99564.78;;;13.94;29.62
63321;BME280;49449;48.800;9.534;2023-02-20T09:48:54;99555.78;;;13.40;29.14
63321;BME280;49449;48.800;9.534;2023-02-20T09:51:26;99563.97;;;13.57;28.03
63321;BME280;49449;48.800;9.534;2023-02-20T09:53:57;99554.34;;;13.44;28.97
63321;BME280;49449;48.800;9.534;2023-02-20T09:56:27;99564.72;;;13.82;30.25
63321;BME280;49449;48.800;9.534;2023-02-20T09:58:59;99551.69;;;14.11;29.24
63321;BME280;49449;48.800;9.534;2023-02-20T10:01:30;99541.66;;;14.37;29.34
63321;BME280;49449;48.800;9.534;2023-02-20T10:04:01;99548.09;;;14.48;28.81
63321;BME280;49449;48.800;9.534;2023-02-20T10:06:32;99543.38;;;14.62;27.88
63321;BME280;49449;48.800;9.534;2023-02-20T10:09:01;99536.56;;;14.77;28.42
63321;BME280;49449;48.800;9.534;2023-02-20T10:15:00;99526.25;;;14.93;27.52
63321;BME280;49449;48.800;9.534;2023-02-20T10:17:39;99523.84;;;14.80;27.31
63321;BME280;49449;48.800;9.534;2023-02-20T10:20:11;99515.28;;;14.89;27.98
63321;BME280;49449;48.800;9.534;2023-02-20T10:22:48;99522.13;;;14.85;29.05
63321;BME280;49449;48.800;9.534;2023-02-20T10:25:23;99515.63;;;14.57;26.93
63321;BME280;49449;48.800;9.534;2023-02-20T10:27:53;99528.81;;;14.22;27.38
63321;BME280;49449;48.800;9.534;2023-02-20T10:30:29;99528.06;;;14.45;27.87
63321;BME280;49449;48.800;9.534;2023-02-20T10:33:03;99528.94;;;14.69;27.63
63321;BME280;49449;48.800;9.534;2023-02-20T10:35:43;99522.69;;;14.87;28.21
63321;BME280;49449;48.800;9.534;2023-02-20T10:38:15;99522.66;;;15.11;29.13
63321;BME280;49449;48.800;9.534;2023-02-20T10:40:48;99522.91;;;15.33;28.36
63321;BME280;49449;48.800;9.534;2023-02-20T10:43:24;99527.69;;;15.60;28.26
63321;BME280;49449;48.800;9.534;2023-02-20T10:45:59;99521.13;;;15.79;27.46
63321;BME280;49449;48.800;9.534;2023-02-20T10:48:33;99515.25;;;15.94;27.32
63321;BME280;49449;48.800;9.534;2023-02-20T10:51:04;99511.78;;;16.05;27.30
63321;BME280;49449;48.800;9.534;2023-02-20T10:53:39;99512.09;;;16.09;27.02
63321;BME280;49449;48.800;9.534;2023-02-20T10:56:13;99504.66;;;16.11;28.18
63321;BME280;49449;48.800;9.534;2023-02-20T10:58:50;99504.50;;;16.18;26.82
63321;BME280;49449;48.800;9.534;2023-02-20T11:01:22;99504.66;;;16.11;28.01
63321;BME280;49449;48.800;9.534;2023-02-20T11:03:56;99501.69;;;16.24;27.25
63321;BME280;49449;48.800;9.534;2023-02-20T11:06:30;99492.72;;;16.31;26.99
63321;BME280;49449;48.800;9.534;2023-02-20T11:08:59;99490.94;;;16.36;26.17
63321;BME280;49449;48.800;9.534;2023-02-20T11:11:31;99491.25;;;16.40;27.20
63321;BME280;49449;48.800;9.534;2023-02-20T11:14:01;99484.97;;;16.46;27.09
63321;BME280;49449;48.800;9.534;2023-02-20T11:16:39;99485.03;;;16.51;27.55
63321;BME280;49449;48.800;9.534;2023-02-20T11:19:12;99480.34;;;16.58;26.64
63321;BME280;49449;48.800;9.534;2023-02-20T11:21:46;99482.66;;;16.72;26.06
63321;BME280;49449;48.800;9.534;2023-02-20T11:24:19;99482.63;;;16.66;25.57
63321;BME280;49449;48.800;9.534;2023-02-20T11:26:48;99483.81;;;16.76;25.51
63321;BME280;49449;48.800;9.534;2023-02-20T11:29:19;99471.81;;;16.78;25.05
63321;BME280;49449;48.800;9.534;2023-02-20T11:31:48;99466.16;;;16.75;25.35
63321;BME280;49449;48.800;9.534;2023-02-20T11:34:19;99462.88;;;16.84;26.04
63321;BME280;49449;48.800;9.534;2023-02-20T11:36:51;99463.25;;;16.93;25.31
63321;BME280;49449;48.800;9.534;2023-02-20T11:39:23;99455.34;;;17.03;29.46
63321;BME280;49449;48.800;9.534;2023-02-20T11:42:04;99451.47;;;17.11;27.30
63321;BME280;49449;48.800;9.534;2023-02-20T11:44:33;99446.50;;;17.20;25.90
63321;BME280;49449;48.800;9.534;2023-02-20T11:47:20;99441.66;;;17.17;26.95
63321;BME280;49449;48.800;9.534;2023-02-20T11:50:07;99432.38;;;17.25;26.79
63321;BME280;49449;48.800;9.534;2023-02-20T11:52:58;99432.06;;;17.21;26.14
63321;BME280;49449;48.800;9.534;2023-02-20T11:55:27;99431.28;;;17.20;26.12
63321;BME280;49449;48.800;9.534;2023-02-20T11:57:56;99423.56;;;17.24;25.87
63321;BME280;49449;48.800;9.534;2023-02-20T12:00:25;99417.50;;;17.29;25.81
63321;BME280;49449;48.800;9.534;2023-02-20T12:02:55;99418.88;;;17.36;25.21
63321;BME280;49449;48.800;9.534;2023-02-20T12:05:38;99409.88;;;17.42;25.58
63321;BME280;49449;48.800;9.534;2023-02-20T12:08:27;99398.19;;;17.49;25.53
63321;BME280;49449;48.800;9.534;2023-02-20T12:10:58;99396.56;;;17.48;25.21
63321;BME280;49449;48.800;9.534;2023-02-20T12:13:29;99404.03;;;17.46;25.81
63321;BME280;49449;48.800;9.534;2023-02-20T12:16:11;99387.50;;;17.49;25.70
63321;BME280;49449;48.800;9.534;2023-02-20T12:18:48;99386.41;;;17.45;24.84
63321;BME280;49449;48.800;9.534;2023-02-20T12:21:35;99378.38;;;17.45;26.43
63321;BME280;49449;48.800;9.534;2023-02-20T12:24:16;99374.03;;;17.38;23.61
63321;BME280;49449;48.800;9.534;2023-02-20T12:26:50;99373.63;;;17.25;25.71
63321;BME280;49449;48.800;9.534;2023-02-20T12:29:37;99364.31;;;17.27;26.65
63321;BME280;49449;48.800;9.534;2023-02-20T12:32:19;99358.78;;;17.34;25.14
63321;BME280;49449;48.800;9.534;2023-02-20T12:34:58;99356.50;;;17.20;24.02
63321;BME280;49449;48.800;9.534;2023-02-20T12:37:41;99343.25;;;17.03;23.96
63321;BME280;49449;48.800;9.534;2023-02-20T12:40:36;99352.25;;;16.53;24.26
63321;BME280;49449;48.800;9.534;2023-02-20T12:43:12;99340.19;;;16.51;25.25
63321;BME280;49449;48.800;9.534;2023-02-20T12:45:49;99336.34;;;16.41;24.75
63321;BME280;49449;48.800;9.534;2023-02-20T12:48:27;99336.72;;;15.60;24.47
63321;BME280;49449;48.800;9.534;2023-02-20T12:51:06;99326.22;;;15.53;24.94
63321;BME280;49449;48.800;9.534;2023-02-20T12:53:52;99315.31;;;15.55;25.40
63321;BME280;49449;48.800;9.534;2023-02-20T12:56:36;99312.03;;;15.65;24.96
63321;BME280;49449;48.800;9.534;2023-02-20T12:59:20;99307.91;;;15.74;24.65
63321;BME280;49449;48.800;9.534;2023-02-20T13:01:50;99312.94;;;15.25;24.95
63321;BME280;49449;48.800;9.534;2023-02-20T13:04:24;99306.47;;;15.21;25.75
63321;BME280;49449;48.800;9.534;2023-02-20T13:07:01;99301.19;;;14.92;25.61
63321;BME280;49449;48.800;9.534;2023-02-20T13:09:33;99301.00;;;14.99;26.46
63321;BME280;49449;48.800;9.534;2023-02-20T13:12:05;99293.28;;;15.43;26.08
63321;BME280;49449;48.800;9.534;2023-02-20T13:14:47;99286.28;;;15.70;26.77
63321;BME280;49449;48.800;9.534;2023-02-20T13:17:25;99288.69;;;16.06;25.28
63321;BME280;49449;48.800;9.534;2023-02-20T13:20:02;99291.00;;;16.19;24.80
63321;BME280;49449;48.800;9.534;2023-02-20T13:22:33;99278.25;;;16.21;24.82
63321;BME280;49449;48.800;9.534;2023-02-20T13:25:36;99284.47;;;16.10;24.91
63321;BME280;49449;48.800;9.534;2023-02-20T13:28:32;99274.59;;;15.55;25.11
63321;BME280;49449;48.800;9.534;2023-02-20T13:31:07;99261.50;;;15.53;24.89
63321;BME280;49449;48.800;9.534;2023-02-20T13:33:36;99250.44;;;15.44;25.46
63321;BME280;49449;48.800;9.534;2023-02-20T13:36:05;99246.81;;;15.67;25.45
63321;BME280;49449;48.800;9.534;2023-02-20T13:38:33;99244.34;;;15.44;24.84
63321;BME280;49449;48.800;9.534;2023-02-20T13:41:07;99230.34;;;15.53;25.93